This is the latest recevied weather packets stored in our database for station/object DF7ER-12. If no packets are shown the sender has not sent any weather packets the latest 10 day(s).
| Time | Temp. | Humidity | Pressure | Rain* | Wind** | Luminosity | Snow |
|---|---|---|---|---|---|---|---|
| 1777691803 | 15° C | 69% | 1011.5 hPa | - | - | - | - |
| 1777691503 | 14.44° C | 70% | 1011.5 hPa | - | - | - | - |
| 1777691203 | 15° C | 70% | 1011.6 hPa | - | - | - | - |
| 1777642047 | 22.78° C | 47% | 1016.3 hPa | - | - | - | - |
| 1777641765 | 22.78° C | 48% | 1016.3 hPa | - | - | - | - |
| 1777641426 | 23.33° C | 47% | 1016.4 hPa | - | - | - | - |
| 1777641341 | 22.78° C | 47% | 1016.5 hPa | - | - | - | - |
| 1777640829 | 22.78° C | 49% | 1016.5 hPa | - | - | - | - |
| 1777640566 | 22.78° C | 46% | 1016.6 hPa | - | - | - | - |
| 1777640224 | 22.78° C | 47% | 1016.6 hPa | - | - | - | - |
| 1777639925 | 22.78° C | 47% | 1016.6 hPa | - | - | - | - |
| 1777639624 | 23.33° C | 47% | 1016.7 hPa | - | - | - | - |
| 1777639298 | 22.78° C | 47% | 1016.9 hPa | - | - | - | - |
| 1777638998 | 22.22° C | 46% | 1016.8 hPa | - | - | - | - |
| 1777638698 | 23.33° C | 46% | 1016.9 hPa | - | - | - | - |
| 1777638398 | 22.78° C | 47% | 1017 hPa | - | - | - | - |
| 1777638099 | 22.78° C | 46% | 1017 hPa | - | - | - | - |
| 1777637798 | 23.33° C | 47% | 1017.1 hPa | - | - | - | - |
| 1777637498 | 23.33° C | 47% | 1017.2 hPa | - | - | - | - |
| 1777637198 | 22.78° C | 47% | 1017.2 hPa | - | - | - | - |
| 1777636898 | 22.22° C | 46% | 1017.2 hPa | - | - | - | - |
| 1777636598 | 23.33° C | 47% | 1017.3 hPa | - | - | - | - |
| 1777636312 | 23.89° C | 47% | 1017.4 hPa | - | - | - | - |
| 1777635999 | 22.78° C | 46% | 1017.4 hPa | - | - | - | - |
| 1777635699 | 23.89° C | 46% | 1017.4 hPa | - | - | - | - |
* Rain since midnight (hover to see other rain measurements)
** Current wind speed in m/s (hover to see current wind gust speed)